Time;durP1;ratioP1;P1;durP2;ratioP2;P2;SDS_P1;SDS_P2;PMS_P1;PMS_P2;Temp;Humidity;BMP_temperature;BMP_pressure;BME280_temperature;BME280_humidity;BME280_pressure;Samples;Min_cycle;Max_cycle;Signal;HPM_P1;HPM_P2
2022/04/05 00:00:41;;;;;;;1.73;1.63;;;;;;;5.77;100.00;98959.91;5069784;28;20170;-80
2022/04/05 00:03:07;;;;;;;1.53;1.43;;;;;;;5.77;100.00;98957.19;5070340;28;20199;-82
2022/04/05 00:05:32;;;;;;;1.50;1.40;;;;;;;5.77;100.00;98965.31;5070414;28;20228;-79
2022/04/05 00:07:58;;;;;;;1.47;1.37;;;;;;;5.76;100.00;98974.56;5070062;28;20220;-77
2022/04/05 00:10:23;;;;;;;1.67;1.37;;;;;;;5.75;100.00;98956.72;5070186;28;20179;-81
2022/04/05 00:12:48;;;;;;;1.53;1.43;;;;;;;5.76;100.00;98960.22;5070353;28;20581;-82
2022/04/05 00:15:15;;;;;;;1.27;1.27;;;;;;;5.76;100.00;98958.31;5069882;28;20204;-83
2022/04/05 00:17:41;;;;;;;2.57;2.10;;;;;;;5.75;100.00;98975.69;5069978;28;20384;-78
2022/04/05 00:20:07;;;;;;;3.57;3.27;;;;;;;5.74;100.00;98981.41;5070254;28;20626;-84
2022/04/05 00:22:33;;;;;;;5.70;2.67;;;;;;;5.73;100.00;98977.91;5070481;28;20327;-79
2022/04/05 00:24:58;;;;;;;1.80;1.10;;;;;;;5.71;100.00;98979.34;5070434;28;20177;-80
2022/04/05 00:27:24;;;;;;;0.90;0.90;;;;;;;5.69;100.00;98968.81;5069962;28;20166;-72
2022/04/05 00:29:49;;;;;;;2.00;1.90;;;;;;;5.68;100.00;98978.06;5070490;28;20175;-73
2022/04/05 00:32:15;;;;;;;2.80;2.57;;;;;;;5.68;100.00;98978.06;5070579;28;20171;-75
2022/04/05 00:34:40;;;;;;;1.60;1.50;;;;;;;5.67;100.00;98990.03;5070434;28;20249;-73
2022/04/05 00:37:06;;;;;;;1.43;1.33;;;;;;;5.67;100.00;98971.06;5069862;28;20668;-73
2022/04/05 00:39:32;;;;;;;2.13;1.93;;;;;;;5.67;100.00;98957.50;5070254;28;20634;-73
2022/04/05 00:41:57;;;;;;;1.37;1.27;;;;;;;5.68;100.00;98964.53;5070557;28;20183;-73
2022/04/05 00:44:24;;;;;;;1.20;1.07;;;;;;;5.70;100.00;98996.72;5070176;28;20209;-73
2022/04/05 00:46:52;;;;;;;1.63;1.53;;;;;;;5.68;100.00;98999.75;5070359;28;20166;-74
2022/04/05 00:49:34;;;;;;;1.67;1.10;;;;;;;5.68;100.00;98984.28;5070414;28;20704;-73
2022/04/05 00:52:00;;;;;;;1.90;1.63;;;;;;;5.70;100.00;98988.59;5070042;28;20167;-74
2022/04/05 00:54:28;;;;;;;2.73;1.67;;;;;;;5.70;100.00;98999.44;5070152;28;20527;-73
2022/04/05 00:56:56;;;;;;;1.73;1.63;;;;;;;5.70;100.00;99005.66;5069800;28;20621;-73
2022/04/05 00:59:23;;;;;;;2.03;1.93;;;;;;;5.67;100.00;99000.84;5068703;28;20178;-73
2022/04/05 01:01:50;;;;;;;2.10;1.90;;;;;;;5.66;100.00;99018.22;5069898;28;20174;-73
2022/04/05 01:04:15;;;;;;;1.73;1.63;;;;;;;5.64;100.00;99009.59;5069977;28;20289;-73
2022/04/05 01:06:45;;;;;;;1.07;1.07;;;;;;;5.57;100.00;99007.34;5069736;28;20586;-75
2022/04/05 01:09:10;;;;;;;1.13;1.03;;;;;;;5.49;100.00;99015.44;5069721;28;20568;-72
2022/04/05 01:11:36;;;;;;;0.70;0.70;;;;;;;5.46;100.00;99007.94;5072363;28;20257;-75
2022/04/05 01:14:02;;;;;;;0.30;0.30;;;;;;;5.44;100.00;99048.88;5073184;28;20584;-73
2022/04/05 01:16:27;;;;;;;0.20;0.20;;;;;;;5.43;100.00;99012.06;5073569;28;20166;-73
2022/04/05 01:18:53;;;;;;;0.03;0.03;;;;;;;5.46;100.00;99008.75;5073329;28;20174;-72
2022/04/05 01:21:19;;;;;;;1.80;0.57;;;;;;;5.45;100.00;99011.75;5073348;28;20179;-74
2022/04/05 01:24:14;;;;;;;0.10;0.10;;;;;;;5.40;100.00;99017.31;5073454;28;20194;-72
2022/04/05 01:26:39;;;;;;;0.10;0.10;;;;;;;5.35;100.00;98999.28;5068482;28;20274;-75
2022/04/05 01:29:05;;;;;;;0.10;0.10;;;;;;;5.29;100.00;98998.63;5073298;28;20693;-73
2022/04/05 01:31:30;;;;;;;0.00;0.00;;;;;;;5.32;100.00;99005.34;5073292;28;20177;-73
2022/04/05 01:33:57;;;;;;;0.00;0.00;;;;;;;5.29;100.00;99011.38;5073153;28;20577;-73
2022/04/05 01:36:23;;;;;;;3.70;0.30;;;;;;;5.30;100.00;99015.69;5073020;28;20196;-74
2022/04/05 01:38:48;;;;;;;0.00;0.00;;;;;;;5.29;100.00;99024.91;5072719;28;20182;-77
2022/04/05 01:41:13;;;;;;;0.00;0.00;;;;;;;5.28;100.00;99029.53;5073026;28;20178;-76
2022/04/05 01:43:40;;;;;;;0.00;0.00;;;;;;;5.26;100.00;99026.34;5072939;28;20202;-74
2022/04/05 01:46:06;;;;;;;0.00;0.00;;;;;;;5.26;100.00;99071.56;5073090;28;20173;-76
2022/04/05 01:48:32;;;;;;;0.10;0.10;;;;;;;5.23;100.00;99026.16;5073027;28;20183;-80
2022/04/05 01:50:57;;;;;;;0.33;0.30;;;;;;;5.26;100.00;99023.63;5073151;28;20170;-73
2022/04/05 01:53:23;;;;;;;0.00;0.00;;;;;;;5.25;100.00;99010.41;5072999;28;20608;-73
2022/04/05 01:55:48;;;;;;;1.73;0.40;;;;;;;5.25;100.00;99016.63;5072913;28;20174;-73
2022/04/05 01:58:13;;;;;;;0.00;0.00;;;;;;;5.24;100.00;99006.09;5072797;28;20185;-74
2022/04/05 02:00:39;;;;;;;0.00;0.00;;;;;;;5.21;100.00;99012.94;5072828;28;20179;-74
2022/04/05 02:03:04;;;;;;;0.10;0.00;;;;;;;5.19;100.00;99028.69;5073055;28;20297;-75
2022/04/05 02:05:29;;;;;;;0.00;0.00;;;;;;;5.19;100.00;99019.75;5072896;28;20307;-84
2022/04/05 02:07:55;;;;;;;0.00;0.00;;;;;;;5.22;100.00;99017.25;5072566;28;20193;-75
2022/04/05 02:10:20;;;;;;;0.20;0.20;;;;;;;5.20;100.00;99016.72;5073052;28;20578;-75
2022/04/05 02:12:45;;;;;;;0.20;0.20;;;;;;;5.22;100.00;99019.16;5072628;28;20699;-75
2022/04/05 02:15:11;;;;;;;0.13;0.10;;;;;;;5.25;100.00;99022.03;5072231;28;20772;-77
2022/04/05 02:17:36;;;;;;;0.10;0.10;;;;;;;5.25;100.00;99027.44;5072509;28;20219;-73
2022/04/05 02:20:02;;;;;;;0.00;0.00;;;;;;;5.24;100.00;99063.75;5072587;28;20178;-78
2022/04/05 02:22:28;;;;;;;0.00;0.00;;;;;;;5.26;100.00;99031.75;5071528;28;20171;-80
2022/04/05 02:24:53;;;;;;;0.10;0.10;;;;;;;5.31;100.00;99017.28;5072474;28;20534;-81
2022/04/05 02:27:18;;;;;;;0.20;0.20;;;;;;;5.35;100.00;99069.69;5072318;28;20167;-74
2022/04/05 02:29:44;;;;;;;0.10;0.07;;;;;;;5.36;100.00;99028.00;5072735;28;20212;-75
2022/04/05 02:32:09;;;;;;;0.20;0.20;;;;;;;5.35;100.00;99035.31;5072481;28;20603;-74
2022/04/05 02:34:35;;;;;;;0.00;0.00;;;;;;;5.35;100.00;99040.72;5072342;28;20182;-78
2022/04/05 02:37:00;;;;;;;0.40;0.40;;;;;;;5.38;100.00;99042.00;5071957;28;20174;-79
2022/04/05 02:39:25;;;;;;;0.20;0.20;;;;;;;5.39;100.00;99043.59;5071994;28;20186;-82
2022/04/05 02:41:51;;;;;;;0.30;0.30;;;;;;;5.43;100.00;99041.88;5071985;28;20198;-78
2022/04/05 02:44:16;;;;;;;0.50;0.20;;;;;;;5.47;100.00;99047.44;5071980;28;20653;-83
2022/04/05 02:46:41;;;;;;;0.30;0.30;;;;;;;5.49;100.00;99046.03;5071905;28;20170;-82
2022/04/05 02:49:08;;;;;;;0.10;0.10;;;;;;;5.49;100.00;99051.44;5072195;28;20166;-84
2022/04/05 02:51:34;;;;;;;0.20;0.20;;;;;;;5.48;100.00;99068.81;5071623;28;20229;-80
2022/04/05 02:53:59;;;;;;;0.47;0.47;;;;;;;5.47;100.00;99061.78;5071888;28;20183;-86
2022/04/05 02:56:24;;;;;;;0.70;0.70;;;;;;;5.48;100.00;99095.09;5071610;28;20185;-88
2022/04/05 02:58:50;;;;;;;0.10;0.10;;;;;;;5.49;100.00;99096.69;5071305;28;20565;-83
2022/04/05 03:01:16;;;;;;;0.40;0.40;;;;;;;5.48;100.00;99070.72;5071573;28;20265;-83
2022/04/05 03:03:41;;;;;;;0.63;0.63;;;;;;;5.47;100.00;99102.41;5071363;28;20286;-84
2022/04/05 03:06:07;;;;;;;0.40;0.40;;;;;;;5.52;100.00;99069.00;5071363;28;20249;-85
2022/04/05 03:08:32;;;;;;;0.10;0.10;;;;;;;5.51;100.00;99067.41;5071310;28;20198;-87
2022/04/05 03:10:57;;;;;;;0.37;0.37;;;;;;;5.54;100.00;99083.03;5071548;28;20171;-85
2022/04/05 03:13:23;;;;;;;0.53;0.53;;;;;;;5.55;100.00;99084.63;5071537;28;20236;-86
2022/04/05 03:15:48;;;;;;;0.60;0.30;;;;;;;5.54;100.00;99077.63;5071459;28;20178;-84
2022/04/05 03:18:13;;;;;;;0.40;0.20;;;;;;;5.54;100.00;99088.44;5071420;28;20646;-87
2022/04/05 03:20:39;;;;;;;0.77;0.77;;;;;;;5.52;100.00;99085.25;5071440;28;20528;-89
2022/04/05 03:23:05;;;;;;;3.10;0.33;;;;;;;5.54;100.00;99115.53;5071434;28;20203;-87
2022/04/05 03:25:30;;;;;;;0.00;0.00;;;;;;;5.53;100.00;99100.41;5071463;28;20182;-84
2022/04/05 03:28:01;;;;;;;0.67;0.50;;;;;;;5.58;100.00;99116.50;5071151;28;20170;-86
2022/04/05 03:30:26;;;;;;;0.40;0.40;;;;;;;5.56;100.00;99116.03;5071318;28;20178;-84
2022/04/05 03:32:51;;;;;;;0.60;0.43;;;;;;;5.53;100.00;99103.91;5070377;28;20170;-88
2022/04/05 03:35:17;;;;;;;0.30;0.30;;;;;;;5.54;100.00;99112.84;5071064;28;20189;-84
2022/04/05 03:37:43;;;;;;;0.30;0.30;;;;;;;5.54;100.00;99066.78;5071047;28;20228;-86
2022/04/05 03:40:09;;;;;;;0.50;0.50;;;;;;;5.53;100.00;99071.41;5071123;28;20186;-88
2022/04/05 03:42:35;;;;;;;0.37;0.37;;;;;;;5.58;100.00;99079.38;5071067;28;20178;-85
2022/04/05 03:45:00;;;;;;;0.30;0.30;;;;;;;5.58;100.00;99086.72;5071055;28;20755;-86
2022/04/05 03:47:27;;;;;;;0.40;0.40;;;;;;;5.57;100.00;99088.63;5070751;28;20179;-88
2022/04/05 03:49:53;;;;;;;0.77;0.50;;;;;;;5.55;100.00;99087.34;5069754;28;20177;-89
2022/04/05 03:52:19;;;;;;;0.60;0.50;;;;;;;5.56;100.00;99094.34;5071019;28;20170;-90
2022/04/05 03:54:44;;;;;;;0.37;0.37;;;;;;;5.61;100.00;99122.09;5071048;28;20174;-81
2022/04/05 03:57:10;;;;;;;0.30;0.30;;;;;;;5.62;100.00;99110.16;5071201;28;20182;-82
2022/04/05 03:59:35;;;;;;;0.60;0.60;;;;;;;5.58;100.00;99092.94;5070006;28;20730;-88
2022/04/05 04:02:00;;;;;;;1.87;0.67;;;;;;;5.55;100.00;99087.34;5071040;28;20204;-87
2022/04/05 04:04:26;;;;;;;0.37;0.37;;;;;;;5.55;100.00;99087.34;5070862;28;20206;-80
2022/04/05 04:06:51;;;;;;;0.10;0.10;;;;;;;5.57;100.00;99096.75;5070778;28;20619;-83
2022/04/05 04:09:16;;;;;;;0.90;0.90;;;;;;;5.61;100.00;99095.00;5070925;28;20201;-81
2022/04/05 04:11:42;;;;;;;0.20;0.20;;;;;;;5.61;100.00;99100.41;5070854;28;20179;-88
2022/04/05 04:14:08;;;;;;;0.90;0.87;;;;;;;5.63;100.00;99097.41;5070376;28;20188;-79
2022/04/05 04:16:33;;;;;;;0.30;0.30;;;;;;;5.66;100.00;99142.84;5070404;28;20170;-76
2022/04/05 04:18:59;;;;;;;0.20;0.20;;;;;;;5.69;100.00;99134.09;5070716;28;20679;-80
2022/04/05 04:21:24;;;;;;;2.83;1.10;;;;;;;5.68;100.00;99136.00;5070718;28;20167;-80
2022/04/05 04:23:49;;;;;;;0.53;0.53;;;;;;;5.68;100.00;99133.31;5070923;28;20718;-79
2022/04/05 04:26:15;;;;;;;0.43;0.43;;;;;;;5.65;100.00;99133.13;5070635;28;20531;-81
2022/04/05 04:28:40;;;;;;;0.50;0.50;;;;;;;5.65;100.00;99139.34;5070333;28;20167;-84
2022/04/05 04:31:05;;;;;;;12.10;1.03;;;;;;;5.63;100.00;99129.91;5070600;28;20176;-79
2022/04/05 04:33:31;;;;;;;1.60;0.83;;;;;;;5.62;100.00;99133.72;5070523;28;20196;-89
2022/04/05 04:35:58;;;;;;;1.40;0.73;;;;;;;5.62;100.00;99131.03;5070355;28;20170;-80
2022/04/05 04:38:23;;;;;;;1.43;0.63;;;;;;;5.59;100.00;99108.06;5070280;28;20170;-87
2022/04/05 04:40:52;;;;;;;2.40;1.80;;;;;;;5.60;100.00;99120.50;5070834;28;20504;-86
2022/04/05 04:43:19;;;;;;;1.47;1.03;;;;;;;5.62;100.00;99112.84;5070025;28;20209;-80
2022/04/05 04:45:45;;;;;;;1.33;1.20;;;;;;;5.63;100.00;99121.78;5067860;28;20184;-88
2022/04/05 04:48:11;;;;;;;1.60;1.50;;;;;;;5.64;100.00;99123.38;5074276;28;20584;-85
2022/04/05 04:50:36;;;;;;;1.00;0.77;;;;;;;5.64;100.00;99134.22;5074484;28;20228;-84
2022/04/05 04:53:02;;;;;;;1.23;0.90;;;;;;;5.62;100.00;99115.56;5074754;28;20630;-87
2022/04/05 04:55:28;;;;;;;0.70;0.70;;;;;;;5.61;100.00;99115.88;5074262;28;20170;-83
2022/04/05 04:57:53;;;;;;;0.83;0.83;;;;;;;5.59;100.00;99123.53;5074203;28;20175;-87
2022/04/05 05:00:19;;;;;;;2.13;0.83;;;;;;;5.59;100.00;99126.22;5074531;28;20202;-88
2022/04/05 05:02:48;;;;;;;0.63;0.63;;;;;;;5.59;100.00;99128.94;5074349;28;20220;-86
2022/04/05 05:05:17;;;;;;;0.93;0.93;;;;;;;5.59;100.00;99135.16;5074054;28;20541;-80
2022/04/05 05:07:44;;;;;;;2.30;1.20;;;;;;;5.60;100.00;99141.38;5074039;28;20194;-84
2022/04/05 05:10:11;;;;;;;0.93;0.70;;;;;;;5.63;100.00;99127.19;5074013;28;20170;-79
2022/04/05 05:12:38;;;;;;;1.13;1.03;;;;;;;5.72;100.00;99178.75;5074190;28;20179;-76
2022/04/05 05:15:04;;;;;;;0.93;0.90;;;;;;;5.75;100.00;99148.31;5073823;28;20182;-87
2022/04/05 05:17:29;;;;;;;0.57;0.47;;;;;;;5.76;100.00;99156.13;5073828;28;20182;-77
2022/04/05 05:19:54;;;;;;;0.77;0.77;;;;;;;5.79;100.00;99152.81;5073909;28;20529;-81
2022/04/05 05:22:20;;;;;;;1.97;1.20;;;;;;;5.81;100.00;99164.13;5073749;28;20174;-80
2022/04/05 05:24:45;;;;;;;1.40;1.30;;;;;;;5.80;100.00;99176.09;5073784;28;20209;-83
2022/04/05 05:27:10;;;;;;;1.10;1.00;;;;;;;5.79;100.00;99163.66;5073775;28;20261;-73
2022/04/05 05:29:36;;;;;;;2.30;1.27;;;;;;;5.79;100.00;99171.78;5074116;28;20294;-89
2022/04/05 05:32:01;;;;;;;1.57;1.03;;;;;;;5.79;100.00;99182.63;5074716;28;20179;-89
2022/04/05 05:34:26;;;;;;;1.30;1.20;;;;;;;5.79;100.00;99181.81;5073728;28;20243;-88
2022/04/05 05:36:52;;;;;;;1.50;1.40;;;;;;;5.80;100.00;99170.66;5073854;28;20249;-90
2022/04/05 05:39:17;;;;;;;1.20;1.17;;;;;;;5.80;100.00;99207.81;5073876;28;20613;-86
2022/04/05 05:41:42;;;;;;;1.90;1.80;;;;;;;5.80;100.00;99207.81;5073790;28;20724;-88
2022/04/05 05:44:08;;;;;;;2.27;2.00;;;;;;;5.83;100.00;99208.00;5074020;28;20558;-89
2022/04/05 05:46:35;;;;;;;1.93;1.80;;;;;;;5.85;100.00;99226.66;5074808;28;20277;-89
2022/04/05 05:49:00;;;;;;;3.93;1.30;;;;;;;5.87;100.00;99230.63;5073565;28;20171;-81
2022/04/05 05:51:26;;;;;;;3.50;1.60;;;;;;;5.88;100.00;99236.84;5073381;28;20181;-83
2022/04/05 05:53:51;;;;;;;6.63;1.97;;;;;;;5.87;100.00;99260.47;5073743;28;20210;-90
2022/04/05 05:56:16;;;;;;;2.73;1.23;;;;;;;5.82;100.00;99262.50;5073618;28;20182;-89
2022/04/05 05:58:42;;;;;;;2.20;1.43;;;;;;;5.76;100.00;99244.75;5073869;28;20648;-87
2022/04/05 06:01:07;;;;;;;1.27;1.17;;;;;;;5.67;100.00;99250.94;5085737;28;20181;-88
2022/04/05 06:03:32;;;;;;;4.23;1.80;;;;;;;5.63;100.00;99224.75;5092393;28;20202;-86
2022/04/05 06:05:58;;;;;;;2.20;1.37;;;;;;;5.59;100.00;99226.47;5092184;28;20236;-89
2022/04/05 06:08:26;;;;;;;3.80;1.80;;;;;;;5.58;100.00;99243.84;5084227;28;20187;-89
2022/04/05 06:10:51;;;;;;;2.43;1.40;;;;;;;5.53;100.00;99233.13;5082145;28;20242;-88
2022/04/05 06:13:16;;;;;;;2.77;1.60;;;;;;;5.50;100.00;99241.88;5074215;28;20281;-87
2022/04/05 06:15:42;;;;;;;1.00;0.97;;;;;;;5.41;100.00;99259.97;5073220;28;20220;-87
2022/04/05 06:18:07;;;;;;;1.03;0.97;;;;;;;5.40;100.00;99239.41;5077607;28;20175;-86
2022/04/05 06:20:33;;;;;;;0.20;0.20;;;;;;;5.32;100.00;99243.63;5073312;28;20621;-89
2022/04/05 06:23:03;;;;;;;2.17;1.63;;;;;;;5.32;100.00;99236.31;5071991;28;20175;-92
2022/04/05 06:25:34;;;;;;;6.83;1.60;;;;;;;5.33;100.00;99251.44;5077668;28;20205;-88
2022/04/05 06:28:02;;;;;;;2.97;1.60;;;;;;;5.31;100.00;99250.94;5073409;28;20177;-89
2022/04/05 06:30:28;;;;;;;1.83;0.80;;;;;;;5.30;100.00;99262.09;5073169;28;20177;-92
2022/04/05 06:33:10;;;;;;;1.43;1.33;;;;;;;5.26;100.00;99256.50;5076051;28;20686;-87
2022/04/05 06:35:37;;;;;;;3.40;0.90;;;;;;;5.24;100.00;99260.63;5073793;28;20182;-91
2022/04/05 06:38:03;;;;;;;1.87;1.00;;;;;;;5.26;100.00;99275.44;5073382;28;20263;-92
2022/04/05 06:40:29;;;;;;;1.50;0.87;;;;;;;5.28;100.00;99267.81;5075562;28;20182;-88
2022/04/05 06:42:54;;;;;;;2.10;0.87;;;;;;;5.30;100.00;99278.34;5074915;28;20186;-81
2022/04/05 06:45:22;;;;;;;2.17;1.37;;;;;;;5.33;100.00;99272.31;5071929;28;20673;-82
2022/04/05 06:47:48;;;;;;;4.83;1.93;;;;;;;5.33;100.00;99262.28;5072036;28;20214;-85
2022/04/05 06:50:16;;;;;;;7.30;1.47;;;;;;;5.35;100.00;99273.63;5072043;28;20213;-76
2022/04/05 06:52:42;;;;;;;2.07;1.10;;;;;;;5.30;100.00;99265.59;5071877;28;20186;-78
2022/04/05 06:55:09;;;;;;;1.17;1.07;;;;;;;5.32;100.00;99304.00;5071773;28;20174;-77
2022/04/05 06:57:34;;;;;;;3.20;1.00;;;;;;;5.33;100.00;99305.59;5071445;28;20175;-81
2022/04/05 07:00:00;;;;;;;1.93;0.77;;;;;;;5.35;100.00;99262.78;5071623;28;20167;-78
2022/04/05 07:02:26;;;;;;;1.40;0.63;;;;;;;5.36;100.00;99269.00;5071633;28;20174;-80
2022/04/05 07:04:51;;;;;;;6.50;1.10;;;;;;;5.38;100.00;99274.91;5071419;28;20674;-79
2022/04/05 07:07:17;;;;;;;1.93;1.70;;;;;;;5.37;100.00;99276.03;5071097;28;20174;-81
2022/04/05 07:09:43;;;;;;;1.57;0.70;;;;;;;5.38;100.00;99291.97;5070956;28;20173;-80
2022/04/05 07:12:08;;;;;;;1.70;0.63;;;;;;;5.40;100.00;99320.66;5071228;28;20171;-77
2022/04/05 07:14:34;;;;;;;3.43;0.90;;;;;;;5.38;100.00;99270.31;5071006;28;20174;-81
2022/04/05 07:16:59;;;;;;;2.60;0.73;;;;;;;5.42;100.00;99278.59;5071007;28;20181;-78
2022/04/05 07:19:25;;;;;;;1.73;0.63;;;;;;;5.39;100.00;99311.72;5071115;28;20575;-79
2022/04/05 07:21:51;;;;;;;2.23;0.70;;;;;;;5.40;100.00;99264.56;5071138;28;20178;-80
2022/04/05 07:24:16;;;;;;;1.57;0.77;;;;;;;5.45;100.00;99278.00;5070877;28;20202;-80
2022/04/05 07:26:42;;;;;;;10.17;1.37;;;;;;;5.47;100.00;99281.19;5070955;28;20208;-80
2022/04/05 07:29:07;;;;;;;1.57;0.80;;;;;;;5.49;100.00;99307.97;5070945;28;20224;-78
2022/04/05 07:31:33;;;;;;;3.07;1.00;;;;;;;5.55;100.00;99309.47;5070967;28;20255;-80
2022/04/05 07:33:58;;;;;;;3.03;1.03;;;;;;;5.55;100.00;99312.97;5070907;28;20397;-79
2022/04/05 07:36:23;;;;;;;2.70;1.97;;;;;;;5.60;100.00;99304.72;5070911;28;20257;-76
2022/04/05 07:38:49;;;;;;;3.67;1.40;;;;;;;5.64;100.00;99313.03;5070528;28;20704;-80
2022/04/05 07:41:14;;;;;;;1.87;1.30;;;;;;;5.69;100.00;99312.94;5070847;28;20626;-79
2022/04/05 07:43:39;;;;;;;2.60;1.30;;;;;;;5.68;100.00;99286.94;5070625;28;20551;-80
2022/04/05 07:46:05;;;;;;;2.40;1.43;;;;;;;5.66;100.00;99289.97;5070901;28;20197;-72
2022/04/05 07:48:31;;;;;;;6.77;1.73;;;;;;;5.68;100.00;99287.75;5070159;28;20561;-74
2022/04/05 07:50:59;;;;;;;2.37;1.67;;;;;;;5.73;100.00;99286.03;5070956;28;20175;-73
2022/04/05 07:53:24;;;;;;;2.33;1.70;;;;;;;5.72;100.00;99295.25;5070888;28;20738;-74
2022/04/05 07:55:49;;;;;;;2.10;1.67;;;;;;;5.77;100.00;99289.72;5070509;28;20221;-72
2022/04/05 07:58:15;;;;;;;3.63;1.47;;;;;;;5.77;100.00;99295.13;5069163;28;20175;-72
2022/04/05 08:00:40;;;;;;;4.97;1.60;;;;;;;5.78;100.00;99291.31;5070690;28;20171;-72
2022/04/05 08:03:05;;;;;;;4.43;1.63;;;;;;;5.84;100.00;99296.31;5070323;28;20216;-73
2022/04/05 08:05:31;;;;;;;5.97;1.47;;;;;;;5.89;100.00;99293.47;5070405;28;20177;-75
2022/04/05 08:07:56;;;;;;;4.50;1.13;;;;;;;5.91;100.00;99299.41;5070237;28;20174;-76
2022/04/05 08:10:22;;;;;;;4.73;1.60;;;;;;;5.95;100.00;99289.56;5070172;28;20637;-77
2022/04/05 08:12:49;;;;;;;4.43;1.73;;;;;;;6.02;100.00;99296.47;5069051;28;20189;-75
2022/04/05 08:15:17;;;;;;;2.63;1.70;;;;;;;6.08;100.00;99292.53;5070103;28;20617;-75
2022/04/05 08:17:43;;;;;;;4.23;1.30;;;;;;;6.08;100.00;99290.63;5070062;28;20179;-76
2022/04/05 08:20:09;;;;;;;5.03;1.80;;;;;;;6.07;100.00;99299.03;5069458;28;20583;-76
2022/04/05 08:22:35;;;;;;;4.20;1.87;;;;;;;6.07;100.00;99290.91;5070257;28;20178;-73
2022/04/05 08:25:00;;;;;;;2.67;0.90;;;;;;;6.02;100.00;99299.97;5070152;28;20210;-75
2022/04/05 08:27:26;;;;;;;9.47;1.83;;;;;;;6.01;100.00;99292.94;5069948;28;20182;-80
2022/04/05 08:29:51;;;;;;;0.93;0.93;;;;;;;6.01;100.00;99303.00;5070098;28;20253;-74
2022/04/05 08:32:17;;;;;;;3.03;0.63;;;;;;;5.99;100.00;99300.59;5070336;28;20170;-74
2022/04/05 08:34:45;;;;;;;4.07;0.70;;;;;;;6.00;100.00;99299.47;5068803;28;20536;-72
2022/04/05 08:37:13;;;;;;;0.83;0.70;;;;;;;6.05;100.00;99312.09;5069955;28;20550;-79
2022/04/05 08:39:40;;;;;;;6.30;0.77;;;;;;;6.11;100.00;99346.13;5070167;28;20237;-80
2022/04/05 08:42:06;;;;;;;1.07;0.50;;;;;;;6.07;100.00;99309.88;5070024;28;20664;-77
2022/04/05 08:44:32;;;;;;;2.63;0.80;;;;;;;6.18;100.00;99327.50;5069929;28;20213;-80
2022/04/05 08:47:02;;;;;;;3.23;0.70;;;;;;;6.21;100.00;99362.13;5070323;28;20171;-78
2022/04/05 08:49:29;;;;;;;6.83;1.17;;;;;;;6.31;100.00;99348.31;5069807;28;20213;-80
2022/04/05 08:51:55;;;;;;;1.33;0.80;;;;;;;6.38;100.00;99346.00;5070154;28;20175;-80
2022/04/05 08:54:21;;;;;;;6.20;1.00;;;;;;;6.51;100.00;99347.03;5069953;28;20185;-80
2022/04/05 08:56:47;;;;;;;1.03;0.70;;;;;;;6.63;100.00;99344.50;5069853;28;20285;-75
2022/04/05 08:59:13;;;;;;;1.47;0.50;;;;;;;6.53;100.00;99342.06;5070096;28;20583;-79
2022/04/05 09:01:42;;;;;;;3.93;0.60;;;;;;;6.47;100.00;99338.69;5069957;28;20193;-78
2022/04/05 09:04:07;;;;;;;1.70;0.60;;;;;;;6.53;100.00;99333.94;5069732;28;20222;-79
2022/04/05 09:06:36;;;;;;;5.60;0.67;;;;;;;6.71;100.00;99340.25;5069709;28;20641;-80
2022/04/05 09:09:13;;;;;;;1.47;0.70;;;;;;;6.74;100.00;99342.31;5069787;28;20170;-80
2022/04/05 09:11:49;;;;;;;3.07;0.87;;;;;;;6.82;100.00;99341.56;5069814;28;20171;-75
2022/04/05 09:14:25;;;;;;;1.80;0.80;;;;;;;6.88;100.00;99331.34;5069563;28;20212;-80
2022/04/05 09:17:03;;;;;;;3.37;1.20;;;;;;;6.77;100.00;99333.53;5069811;28;20193;-76
2022/04/05 09:19:36;;;;;;;4.83;1.10;;;;;;;6.86;100.00;99337.09;5068375;28;20198;-73
2022/04/05 09:22:03;;;;;;;5.60;1.33;;;;;;;6.96;100.00;99336.84;5069769;28;20576;-79
2022/04/05 09:24:36;;;;;;;3.47;1.20;;;;;;;7.04;100.00;99346.91;5069650;28;20725;-73
2022/04/05 09:27:02;;;;;;;2.63;1.40;;;;;;;7.04;100.00;99338.75;5069493;28;20163;-74
2022/04/05 09:29:41;;;;;;;8.07;0.80;;;;;;;7.02;100.00;99332.84;5069544;28;20240;-76
2022/04/05 09:32:07;;;;;;;4.77;1.37;;;;;;;7.01;100.00;99333.16;5071651;28;20220;-77
2022/04/05 09:34:32;;;;;;;2.77;1.10;;;;;;;6.91;100.00;99334.25;5073175;28;20526;-75
2022/04/05 09:37:10;;;;;;;8.57;1.43;;;;;;;6.80;100.00;99333.75;5072928;28;20174;-75
2022/04/05 09:39:36;;;;;;;1.60;1.07;;;;;;;6.75;100.00;99322.22;5073129;28;20647;-78
2022/04/05 09:42:02;;;;;;;4.57;1.70;;;;;;;6.72;100.00;99323.63;5073014;28;20167;-79
2022/04/05 09:44:31;;;;;;;4.67;1.43;;;;;;;6.75;100.00;99308.63;5072878;28;20272;-78
2022/04/05 09:47:04;;;;;;;2.13;1.40;;;;;;;6.78;100.00;99308.00;5072968;28;20170;-79
2022/04/05 09:49:32;;;;;;;2.17;1.37;;;;;;;6.77;100.00;99319.97;5072919;28;20170;-74
2022/04/05 09:51:57;;;;;;;3.37;1.43;;;;;;;6.72;100.00;99311.97;5071643;28;20178;-79
2022/04/05 09:54:27;;;;;;;3.97;1.30;;;;;;;6.77;100.00;99312.63;5072763;28;20579;-80
2022/04/05 09:57:03;;;;;;;2.63;1.60;;;;;;;6.77;100.00;99315.34;5069547;28;20182;-76
2022/04/05 09:59:42;;;;;;;2.20;1.50;;;;;;;6.79;100.00;99320.47;5072770;28;20515;-77
2022/04/05 10:02:16;;;;;;;2.20;1.67;;;;;;;6.79;100.00;99310.41;5067116;28;20163;-81
2022/04/05 10:05:06;;;;;;;3.50;1.50;;;;;;;6.87;100.00;99319.69;5053043;28;20195;-79
2022/04/05 10:07:32;;;;;;;3.67;2.23;;;;;;;6.93;100.00;99323.06;5052778;28;20168;-80
2022/04/05 10:09:59;;;;;;;4.90;2.60;;;;;;;7.00;100.00;99323.41;5052982;28;20538;-79
2022/04/05 10:12:25;;;;;;;5.40;1.60;;;;;;;7.09;100.00;99322.34;5052692;28;20167;-78
2022/04/05 10:14:50;;;;;;;2.87;2.50;;;;;;;7.09;100.00;99318.81;5052982;28;20531;-80
2022/04/05 10:17:18;;;;;;;0.97;0.73;;;;;;;7.11;100.00;99303.00;5051328;28;20213;-80
2022/04/05 10:19:48;;;;;;;3.10;1.80;;;;;;;7.07;100.00;99313.69;5052902;28;20213;-76
2022/04/05 10:22:16;;;;;;;1.30;1.20;;;;;;;7.08;100.00;99309.84;5052820;28;20254;-74
2022/04/05 10:24:41;;;;;;;1.70;1.37;;;;;;;7.15;100.00;99318.34;5052184;28;20205;-82
2022/04/05 10:27:08;;;;;;;3.53;2.10;;;;;;;7.11;100.00;99319.31;5052300;28;20167;-80
2022/04/05 10:29:35;;;;;;;3.27;2.57;;;;;;;7.11;100.00;99284.78;5052269;28;20255;-75
2022/04/05 10:32:25;;;;;;;2.30;1.63;;;;;;;7.02;100.00;99281.25;5052282;28;20172;-81
2022/04/05 10:35:01;;;;;;;2.87;2.20;;;;;;;7.06;100.00;99270.53;5051992;28;20182;-76
2022/04/05 10:37:33;;;;;;;2.20;1.80;;;;;;;7.20;100.00;99276.66;5051753;28;20197;-81
2022/04/05 10:39:58;;;;;;;0.77;0.77;;;;;;;7.30;100.00;99275.53;5051953;28;20190;-75
2022/04/05 10:42:40;;;;;;;0.47;0.47;;;;;;;7.34;100.00;99281.94;5051974;28;20184;-72
2022/04/05 10:45:12;;;;;;;2.27;1.77;;;;;;;7.34;100.00;99282.72;5051447;28;20215;-76
2022/04/05 10:48:16;;;;;;;1.73;1.63;;;;;;;7.36;100.00;99323.16;5051609;28;20254;-77
2022/04/05 10:50:43;;;;;;;1.40;1.33;;;;;;;7.30;100.00;99308.16;5052095;28;20171;-78
2022/04/05 10:53:32;;;;;;;0.90;0.90;;;;;;;7.21;100.00;99299.97;5051593;28;20685;-77
2022/04/05 10:56:03;;;;;;;1.70;1.60;;;;;;;7.23;100.00;99307.81;5051900;28;20716;-80
2022/04/05 10:58:39;;;;;;;3.73;2.50;;;;;;;7.24;100.00;99274.13;5051273;28;20224;-78
2022/04/05 11:01:20;;;;;;;3.10;2.13;;;;;;;7.26;100.00;99280.81;5051617;28;20179;-75
2022/04/05 11:04:17;;;;;;;2.60;2.40;;;;;;;7.21;100.00;99263.84;5051375;28;20293;-81
2022/04/05 11:07:01;;;;;;;2.33;1.50;;;;;;;7.20;100.00;99270.41;5051364;28;20167;-75
2022/04/05 11:09:35;;;;;;;3.10;0.80;;;;;;;7.12;100.00;99264.66;5051317;28;20199;-78
2022/04/05 11:12:03;;;;;;;1.13;1.03;;;;;;;7.09;100.00;99275.38;5051355;28;20182;-76
2022/04/05 11:14:41;;;;;;;2.03;1.90;;;;;;;7.13;100.00;99276.31;5050927;28;20236;-72
2022/04/05 11:17:09;;;;;;;1.50;1.40;;;;;;;7.14;100.00;99278.72;5050947;28;20530;-74
2022/04/05 11:19:37;;;;;;;1.53;1.43;;;;;;;7.30;100.00;99270.91;5051173;28;20508;-78
2022/04/05 11:22:24;;;;;;;0.40;0.40;;;;;;;7.32;100.00;99267.88;5051275;28;20646;-76
2022/04/05 11:25:08;;;;;;;5.27;2.03;;;;;;;7.45;100.00;99300.34;5051146;28;20214;-77
2022/04/05 11:27:45;;;;;;;0.50;0.50;;;;;;;7.45;100.00;99275.88;5049783;28;20187;-73
2022/04/05 11:30:26;;;;;;;0.60;0.60;;;;;;;7.56;100.00;99308.19;5051369;28;20199;-73
2022/04/05 11:33:14;;;;;;;1.50;1.40;;;;;;;7.62;100.00;99315.03;5051125;28;20250;-72
2022/04/05 11:35:42;;;;;;;1.03;0.93;;;;;;;7.60;100.00;99307.22;5050005;28;20266;-72